Date,TemperatureHighF,TemperatureAvgF,TemperatureLowF,DewpointHighF,DewpointAvgF,DewpointLowF,HumidityHigh,HumidityAvg,HumidityLow,PressureMaxIn,PressureMinIn,WindSpeedMaxMPH,WindSpeedAvgMPH,GustSpeedMaxMPH,PrecipitationSumIn
2013-1-1,36.6,6.4,34.7,30.0,-77.1,-99.9,79,13,74,30.31,30.21,6,-822,0,0.00
2013-1-2,38.9,6.5,36.2,29.0,-78.2,-99.9,69,11,64,30.21,30.06,4,-829,0,0.01
2013-1-3,36.2,4.9,33.2,29.0,-82.3,-99.9,78,10,69,30.15,30.01,1,-861,0,0.00
2013-1-4,48.2,6.8,44.8,45.0,-78.9,-99.9,100,13,86,30.21,30.05,3,-853,0,0.00
2013-1-5,-200.0,0.0,200.0,-99.9,-99.9,-99.9,0,0,100,30.09,30.04,0,-999,0,0.00
2013-1-6,44.6,8.7,40.9,42.0,-71.4,-99.9,96,19,90,30.11,29.99,0,-797,0,0.00
2013-1-7,-200.0,0.0,200.0,-99.9,-99.9,-99.9,0,0,100,30.11,29.94,0,-999,0,0.00
2013-1-8,51.3,24.9,47.6,51.0,-24.7,-99.9,100,50,91,30.11,29.82,3,-494,0,0.00
2013-1-9,48.5,40.4,33.5,46.0,39.5,33.0,99,96,91,29.89,29.64,9,0,0,0.31
2013-1-10,40.9,35.4,31.8,41.0,34.8,32.0,100,97,89,30.02,29.88,3,0,0,0.07
2013-1-11,37.2,33.5,29.8,34.0,29.7,25.0,97,86,68,30.20,30.01,5,1,0,0.01
2013-1-12,31.3,27.4,21.9,30.0,25.9,21.0,96,94,84,30.31,30.19,3,0,0,0.00
2013-1-13,27.3,26.2,24.4,27.0,25.2,24.0,97,96,93,30.39,30.30,3,0,0,0.00
2013-1-14,34.9,29.3,25.3,30.0,27.1,24.0,96,91,82,30.47,30.39,3,0,0,0.00
2013-1-15,37.5,34.4,31.5,36.0,32.6,30.0,96,93,88,30.54,30.45,4,1,0,0.00
2013-1-16,33.1,31.6,30.1,33.0,31.2,30.0,99,98,95,30.55,30.39,3,0,0,0.00
2013-1-17,32.2,30.7,29.3,32.0,30.6,29.0,99,99,98,30.39,30.22,5,0,0,0.00
2013-1-18,33.7,30.9,28.5,34.0,30.8,28.0,100,99,98,30.23,30.18,2,0,0,0.00
2013-1-19,31.3,29.1,26.7,31.0,28.8,26.0,99,98,97,30.24,30.18,2,0,0,0.01
2013-1-20,30.9,28.3,26.0,31.0,27.9,25.0,99,98,96,30.26,30.15,2,0,0,0.00
2013-1-21,29.7,27.3,24.8,29.0,26.8,24.0,98,97,96,30.18,30.06,2,0,0,0.00
2013-1-22,30.6,27.7,24.4,30.0,27.2,24.0,99,97,96,30.06,29.85,2,0,0,0.01
2013-1-23,37.0,32.5,30.1,37.0,32.6,30.0,100,100,99,30.09,29.79,1,0,0,0.07
2013-1-24,41.1,35.2,30.7,41.0,35.3,31.0,100,100,100,30.11,30.02,1,0,0,0.28
2013-1-25,50.1,44.8,37.2,50.0,44.8,37.0,100,100,100,30.05,29.87,2,0,0,0.07
2013-1-26,44.2,38.8,36.9,44.0,38.9,37.0,100,100,100,30.00,29.86,4,0,0,0.29
2013-1-27,41.5,37.9,34.7,42.0,38.0,35.0,100,100,100,30.07,29.97,1,0,0,0.18
2013-1-28,42.5,40.4,36.3,43.0,40.5,36.0,100,100,100,30.14,30.00,4,0,0,0.09
2013-1-29,45.5,42.9,40.2,46.0,42.8,40.0,100,100,98,30.40,30.14,7,0,0,0.03
2013-1-30,48.0,43.8,40.1,48.0,43.8,40.0,100,100,98,30.40,30.34,2,0,0,0.05
2013-1-31,50.2,45.9,42.5,47.0,44.5,42.0,100,94,85,30.35,30.22,1,0,0,0.00
2013-2-1,49.8,44.5,39.1,47.0,42.4,39.0,100,92,79,30.24,30.13,7,1,0,0.01
2013-2-2,42.2,37.3,33.1,42.0,37.1,33.0,100,99,94,30.22,30.16,0,0,0,0.00
2013-2-3,45.4,42.0,34.6,45.0,41.6,35.0,100,98,92,30.23,30.13,2,0,0,0.01
2013-2-4,50.1,44.5,40.3,44.0,42.2,40.0,99,92,78,30.13,29.86,1,0,0,0.00
2013-2-5,48.3,43.6,39.8,48.0,42.9,40.0,100,97,90,29.97,29.83,3,0,0,0.18
2013-2-6,48.8,43.1,39.3,47.0,42.3,39.0,100,97,86,30.00,29.75,6,0,0,0.11
2013-2-7,43.9,38.5,34.1,43.0,37.6,34.0,100,96,91,30.01,29.84,3,0,0,0.05
2013-2-8,41.9,36.6,29.7,38.0,34.9,29.0,100,93,80,30.18,30.03,2,0,0,0.01
2013-2-9,44.1,40.1,36.0,41.0,38.2,34.0,99,92,82,30.20,30.16,1,0,0,0.02
2013-2-10,43.6,41.8,40.3,42.0,39.9,37.0,100,93,83,30.23,30.19,3,0,0,0.01
2013-2-11,47.4,43.0,39.6,43.0,38.8,36.0,96,85,70,30.29,30.20,1,0,0,0.00
2013-2-12,52.6,46.7,42.6,49.0,44.5,42.0,99,92,80,30.38,30.29,7,1,0,0.02
2013-2-13,52.0,47.2,44.3,48.0,44.2,41.0,98,89,76,30.39,30.33,5,0,0,0.00
2013-2-14,54.8,46.9,40.3,46.0,42.1,39.0,95,84,67,30.44,30.34,6,1,0,0.00
2013-2-15,51.7,44.6,37.8,45.0,42.2,38.0,99,91,77,30.35,30.12,11,2,0,0.00
2013-2-16,51.1,42.6,35.3,46.0,40.1,35.0,100,91,72,30.19,30.11,9,0,0,0.01
2013-2-17,44.5,40.5,36.3,39.0,35.1,32.0,96,81,65,30.19,29.98,2,0,0,0.00
2013-2-18,46.2,39.2,33.4,40.0,36.1,32.0,98,89,73,29.98,29.63,2,0,0,0.04
2013-2-19,47.7,40.7,36.5,42.0,37.8,35.0,99,90,67,29.89,29.55,4,0,0,0.11
2013-2-20,47.4,39.9,35.0,43.0,37.6,34.0,99,92,72,30.01,29.90,5,0,0,0.13
2013-2-21,42.9,39.0,34.7,42.0,38.6,35.0,100,98,93,30.13,30.02,2,0,0,0.06
2013-2-22,43.8,41.3,37.0,44.0,40.6,36.0,100,97,86,30.10,29.84,10,1,0,0.60
2013-2-23,46.0,38.7,35.0,41.0,35.9,34.0,99,90,67,30.35,30.01,5,0,0,0.12
2013-2-24,50.2,40.6,32.9,39.0,35.4,32.0,99,83,54,30.35,29.99,1,0,0,0.00
2013-2-25,45.5,39.9,34.3,43.0,38.4,34.0,99,94,69,30.30,29.97,6,1,0,0.47
2013-2-26,46.8,39.2,32.1,39.0,35.6,32.0,99,88,65,30.30,30.15,2,0,0,0.00
2013-2-27,49.5,43.8,38.6,45.0,41.3,37.0,99,91,77,30.21,30.13,0,0,0,0.06
2013-2-28,56.6,49.9,45.2,55.0,49.1,45.0,100,97,88,30.35,30.11,1,0,0,0.02
2013-3-1,59.2,52.8,49.1,53.0,49.6,47.0,99,90,74,30.36,30.21,1,0,0,0.00
2013-3-2,53.2,49.1,41.8,50.0,46.3,37.0,99,90,76,30.21,30.08,5,0,0,0.00
2013-3-3,47.9,42.2,36.6,37.0,32.6,30.0,88,70,51,30.21,30.11,10,2,0,0.00
2013-3-4,51.4,42.1,33.5,40.0,34.8,31.0,94,76,57,30.10,29.80,11,1,0,0.00
2013-3-5,46.0,42.2,39.1,45.0,41.2,34.0,99,96,74,29.80,29.52,4,0,0,0.36
2013-3-6,45.1,41.5,38.3,45.0,41.2,38.0,99,99,96,29.86,29.44,2,0,0,0.33
2013-3-7,53.3,43.1,34.6,41.0,37.0,34.0,99,81,50,29.94,29.86,5,0,0,0.01
2013-3-8,54.5,44.7,35.9,41.0,37.2,34.0,96,77,47,30.10,29.91,9,1,0,0.00
2013-3-9,56.9,45.9,35.5,44.0,38.4,34.0,98,77,51,30.39,30.10,3,0,0,0.00
2013-3-10,55.3,46.3,37.6,47.0,41.1,35.0,94,82,67,30.38,30.30,2,0,0,0.00
2013-3-11,56.7,50.4,46.0,51.0,47.4,45.0,97,90,76,30.31,30.14,4,0,0,0.00
2013-3-12,59.9,51.0,43.8,51.0,46.9,43.0,100,86,69,30.14,30.06,4,0,0,0.00
2013-3-13,62.9,53.0,45.1,51.0,46.8,43.0,93,80,64,30.12,29.98,5,0,0,0.00
2013-3-14,57.6,51.8,45.4,50.0,45.7,42.0,92,80,64,30.11,29.95,3,0,0,0.00
2013-3-15,62.1,53.2,46.7,51.0,47.8,45.0,96,82,62,30.12,30.06,7,1,0,0.00
2013-3-16,48.8,44.9,38.3,47.0,43.2,36.0,98,94,84,30.09,29.93,16,0,0,0.17
2013-3-17,49.2,40.2,34.0,41.0,35.4,33.0,99,84,61,30.22,30.08,13,1,0,0.02
2013-3-18,51.4,42.8,33.4,38.0,34.0,32.0,96,73,48,30.20,30.02,9,2,0,0.00
2013-3-19,47.3,42.9,38.5,46.0,39.7,34.0,99,88,71,30.02,29.58,9,0,0,0.62
2013-3-20,49.8,44.9,35.0,50.0,43.7,34.0,100,95,77,30.09,29.47,11,1,0,0.62
2013-3-21,48.0,38.8,33.5,42.0,35.9,33.0,99,90,67,30.24,30.09,9,1,0,0.19
2013-3-22,45.5,37.4,32.7,41.0,34.5,30.0,98,90,72,30.29,30.21,3,0,0,0.14
2013-3-23,47.4,39.6,31.8,36.0,31.2,25.0,96,74,51,30.29,30.15,6,1,0,0.01
2013-3-24,52.3,44.7,36.6,39.0,34.1,28.0,84,67,56,30.15,29.97,6,1,0,0.00
2013-3-25,56.6,48.2,39.6,43.0,37.1,32.0,83,66,54,29.97,29.81,4,0,0,0.00
2013-3-26,53.1,47.6,43.2,47.0,43.8,39.0,98,87,72,29.91,29.85,2,0,0,0.08
2013-3-27,60.9,49.7,43.2,53.0,46.6,43.0,99,90,63,29.89,29.80,1,0,0,0.09
2013-3-28,61.6,52.9,47.4,51.0,48.1,46.0,97,84,61,30.02,29.88,9,0,0,0.01
2013-3-29,64.3,55.6,47.6,53.0,49.6,47.0,98,81,63,30.09,30.02,11,1,0,0.00
2013-3-30,72.3,61.0,49.1,53.0,48.5,44.0,84,65,47,30.05,29.83,9,2,0,0.00
2013-3-31,72.3,58.8,47.6,56.0,50.1,46.0,97,75,50,29.91,29.81,14,1,0,0.00
2013-4-1,59.5,53.8,47.3,52.0,49.8,46.0,96,86,75,30.07,29.91,6,0,0,0.00
2013-4-2,65.8,53.8,46.2,53.0,48.1,45.0,98,82,60,30.11,30.02,3,0,0,0.00
2013-4-3,62.3,52.6,44.1,53.0,48.5,44.0,99,87,68,30.05,29.79,3,0,0,0.00
2013-4-4,59.2,54.2,49.9,58.0,52.1,48.0,99,93,79,29.80,29.59,6,0,0,0.22
2013-4-5,55.4,51.1,49.6,55.0,50.5,49.0,100,97,91,29.87,29.73,2,0,0,0.26
2013-4-6,55.6,49.0,45.4,52.0,48.0,45.0,100,96,77,29.91,29.65,1,0,0,0.88
2013-4-7,49.2,45.4,38.9,48.0,43.3,38.0,100,92,74,29.88,29.51,6,1,0,0.16
2013-4-8,53.6,44.5,37.0,48.0,41.0,37.0,98,88,66,30.18,29.88,7,0,0,0.12
2013-4-9,57.5,48.5,40.9,46.0,42.2,38.0,93,80,58,30.25,30.14,1,0,0,0.00
2013-4-10,59.2,50.9,41.8,54.0,46.3,38.0,98,85,65,30.24,30.07,9,1,0,0.06
2013-4-11,55.4,46.6,37.8,42.0,39.3,36.0,97,77,55,30.24,30.07,6,0,0,0.00
2013-4-12,57.5,47.8,39.2,47.0,41.6,35.0,97,80,63,30.04,29.79,5,0,0,0.05
2013-4-13,49.9,42.9,37.2,43.0,37.9,36.0,98,83,59,30.02,29.87,7,1,0,0.11
2013-4-14,49.1,41.8,37.8,43.0,39.5,36.0,99,92,77,30.01,29.83,5,0,0,0.19
2013-4-15,53.3,44.1,38.5,41.0,37.9,34.0,95,80,52,30.07,29.85,6,1,0,0.03
2013-4-16,57.5,46.9,38.6,43.0,38.6,36.0,93,74,49,30.28,30.08,11,1,0,0.00
2013-4-17,56.5,47.1,36.9,46.0,40.5,36.0,98,79,53,30.39,30.28,5,0,0,0.00
2013-4-18,62.3,51.8,42.5,49.0,43.4,39.0,90,74,55,30.37,30.23,5,0,0,0.00
2013-4-19,56.7,50.5,47.1,53.0,48.2,45.0,99,92,76,30.23,30.09,12,1,0,0.24
2013-4-20,61.2,51.0,44.1,47.0,44.4,41.0,98,79,55,30.24,30.15,4,0,0,0.01
2013-4-21,57.6,49.4,42.8,49.0,44.1,41.0,94,82,67,30.20,30.14,6,0,0,0.00
2013-4-22,62.1,52.7,42.6,43.0,37.6,30.0,86,60,32,30.27,30.20,16,5,0,0.00
2013-4-23,66.9,56.2,43.5,42.0,33.9,29.0,70,45,27,30.23,30.02,11,3,0,0.00
2013-4-24,71.6,60.8,49.4,41.0,32.8,28.0,51,36,23,30.09,29.89,11,3,0,0.00
2013-4-25,73.2,62.1,49.5,51.0,42.7,31.0,68,50,33,30.01,29.89,5,1,0,0.00
2013-4-26,75.8,62.6,48.3,55.0,45.5,36.0,85,57,27,30.12,30.02,6,0,0,0.00
2013-4-27,71.1,60.0,48.2,46.0,39.3,30.0,84,49,25,30.15,30.09,7,1,0,0.00
2013-4-28,66.0,55.7,49.4,52.0,46.5,43.0,91,73,45,30.18,30.01,3,0,0,0.00
2013-4-29,59.2,51.4,41.3,49.0,41.1,32.0,98,70,45,30.12,30.00,5,1,0,0.06
2013-4-30,56.5,45.7,36.6,41.0,34.6,31.0,87,67,43,30.30,30.12,6,0,0,0.00
2013-5-1,65.5,52.8,39.5,41.0,35.4,31.0,77,55,32,30.38,30.29,9,3,0,0.00
2013-5-2,75.6,64.5,51.3,43.0,36.0,30.0,46,36,23,30.30,30.11,8,2,0,0.00
2013-5-3,75.6,64.9,53.3,49.0,40.6,33.0,57,42,27,30.16,29.98,15,5,0,0.00
2013-5-4,79.8,69.0,58.3,49.0,39.1,33.0,52,35,21,29.98,29.74,18,5,0,0.00
2013-5-5,81.8,72.7,59.6,46.0,38.5,32.0,61,30,23,29.74,29.53,15,6,0,0.00
2013-5-6,75.6,61.9,49.5,55.0,49.1,45.0,87,65,43,29.79,29.65,6,1,0,0.00
2013-5-7,70.1,57.0,46.7,55.0,48.9,46.0,96,76,52,29.93,29.80,6,0,0,0.00
2013-5-8,68.1,55.1,45.5,57.0,49.5,44.0,97,82,64,30.03,29.93,5,0,0,0.00
2013-5-9,77.7,62.2,46.1,58.0,51.9,45.0,98,72,36,30.07,29.95,11,1,0,0.00
2013-5-10,79.2,65.7,53.5,61.0,54.5,50.0,91,69,44,30.07,29.99,4,0,0,0.00
2013-5-11,79.9,65.2,51.7,63.0,55.1,49.0,93,71,49,30.08,29.90,6,0,0,0.00
2013-5-12,72.8,63.0,56.6,61.0,55.2,51.0,93,76,56,30.01,29.95,3,0,0,0.00
2013-5-13,68.1,57.2,49.5,57.0,51.5,44.0,97,82,57,30.11,29.95,12,1,0,0.02
2013-5-14,66.0,55.2,46.0,49.0,42.6,34.0,89,65,44,30.11,29.99,4,0,0,0.00
2013-5-15,58.9,52.1,47.0,52.0,46.3,37.0,93,81,58,30.01,29.91,1,0,0,0.09
2013-5-16,60.2,54.3,48.5,54.0,50.7,45.0,98,88,69,29.91,29.84,3,0,0,0.10
2013-5-17,62.9,53.8,47.4,52.0,46.9,44.0,96,78,56,30.00,29.89,9,0,0,0.00
2013-5-18,59.8,52.8,47.7,53.0,49.5,45.0,97,88,75,30.17,30.00,3,0,0,0.03
2013-5-19,64.3,56.5,51.0,52.0,49.0,46.0,97,77,55,30.29,30.17,7,1,0,0.00
2013-5-20,70.6,57.3,47.7,52.0,46.0,34.0,87,68,46,30.21,29.82,9,2,0,0.00
2013-5-21,50.8,45.9,39.3,49.0,44.2,39.0,98,94,72,29.91,29.74,5,0,0,0.56
2013-5-22,49.6,44.2,39.3,49.0,43.5,39.0,99,97,93,29.91,29.85,4,0,0,0.22
2013-5-23,53.2,47.6,43.6,51.0,46.6,43.0,99,96,83,29.92,29.89,2,0,0,0.21
2013-5-24,56.7,49.7,44.8,51.0,47.4,44.0,99,92,76,29.98,29.89,6,0,0,0.05
2013-5-25,65.2,54.0,43.9,52.0,47.4,43.0,98,80,55,29.98,29.82,3,0,0,0.07
2013-5-26,62.9,54.5,50.8,55.0,50.9,47.0,99,88,67,29.94,29.84,3,0,0,0.06
2013-5-27,62.4,53.9,49.4,60.0,52.3,47.0,99,94,81,29.88,29.64,3,0,0,0.43
2013-5-28,61.8,54.5,50.4,55.0,50.4,47.0,99,87,65,29.83,29.65,4,0,0,0.24
2013-5-29,62.1,52.8,47.0,55.0,50.4,45.0,100,92,70,29.97,29.53,6,1,0,0.27
2013-5-30,60.5,52.9,46.4,52.0,47.1,43.0,98,82,60,30.14,29.97,4,0,0,0.03
2013-5-31,65.5,56.5,46.0,51.0,46.7,44.0,95,71,52,30.21,30.11,7,1,0,0.00
2013-6-1,74.2,61.2,48.9,58.0,50.9,46.0,94,71,49,30.12,29.91,6,1,0,0.00
2013-6-2,68.4,59.6,53.3,55.0,51.5,49.0,90,76,54,29.96,29.91,7,1,0,0.00
2013-6-3,73.2,60.9,47.3,54.0,50.7,46.0,95,72,41,29.98,29.90,6,1,0,0.00
2013-6-4,78.1,64.6,53.8,57.0,48.7,44.0,72,58,33,29.95,29.85,9,2,0,0.00
2013-6-5,81.4,71.3,56.7,61.0,56.4,53.0,88,61,40,29.95,29.84,6,1,0,0.00
2013-6-6,80.7,68.2,56.0,61.0,56.4,49.0,91,67,47,29.93,29.86,5,1,0,0.00
2013-6-7,78.1,64.5,53.1,61.0,53.4,48.0,88,69,40,30.01,29.93,3,0,0,0.00
2013-6-8,77.7,65.1,52.8,54.0,48.9,40.0,82,59,28,30.04,29.92,7,2,0,0.00
2013-6-9,71.8,62.2,53.5,54.0,48.9,45.0,78,63,44,29.98,29.85,12,3,0,0.00
2013-6-10,69.6,57.6,48.3,51.0,45.7,42.0,78,65,49,29.89,29.78,10,2,0,0.00
2013-6-11,64.0,55.7,50.5,49.0,45.7,44.0,83,70,52,30.04,29.89,6,0,0,0.00
2013-6-12,64.2,54.7,46.8,51.0,46.8,44.0,90,76,57,30.07,30.03,5,0,0,0.00
2013-6-21,66.9,63.0,59.0,54.0,46.4,-99.9,75,66,63,30.00,29.99,3,0,0,0.00
2013-6-22,79.4,65.1,52.6,57.0,51.4,45.0,93,64,35,29.99,29.75,4,0,0,0.00
2013-6-23,71.1,61.9,57.6,63.0,58.2,49.0,98,88,62,29.75,29.54,3,0,0,0.29
2013-6-24,64.2,57.3,52.5,57.0,54.5,51.0,98,90,71,29.61,29.57,2,0,0,0.06
2013-6-25,64.7,58.6,55.1,62.0,56.7,54.0,99,93,79,29.75,29.57,3,0,0,0.29
2013-6-26,70.1,62.3,56.9,62.0,58.4,56.0,99,88,65,29.92,29.75,2,0,0,0.15
2013-6-27,79.6,68.7,59.9,65.0,60.5,56.0,90,76,55,30.03,29.90,3,0,0,0.00
2013-6-28,87.2,73.4,60.9,69.0,61.6,53.0,96,69,43,30.02,29.91,11,0,0,0.00
2013-6-29,85.5,73.9,62.3,66.0,59.4,55.0,80,62,44,29.99,29.84,3,1,0,0.00
2013-6-30,90.1,76.6,63.5,71.0,63.1,60.0,88,65,43,29.85,29.73,5,0,0,0.00
2013-7-1,88.4,74.3,60.9,70.0,63.2,58.0,91,70,50,29.88,29.79,3,0,0,0.00
2013-7-2,87.2,74.9,61.0,70.0,62.7,54.0,93,68,47,29.95,29.88,4,0,0,0.00
2013-7-3,84.3,70.8,58.4,60.0,52.7,45.0,84,55,29,30.00,29.90,7,1,0,0.00
2013-7-4,77.4,63.9,52.6,58.0,51.9,48.0,87,67,44,30.02,29.89,9,1,0,0.00
2013-7-5,75.1,62.9,52.2,57.0,51.7,47.0,84,68,44,29.95,29.82,7,1,0,0.00
2013-7-6,76.5,61.7,51.1,59.0,53.7,50.0,96,77,52,29.85,29.74,9,1,0,0.00
2013-7-7,79.4,65.0,53.5,61.0,56.0,52.0,98,75,50,29.86,29.76,7,1,0,0.00
2013-7-8,80.9,64.2,52.5,59.0,53.7,51.0,96,72,35,29.95,29.86,8,1,0,0.00
2013-7-9,88.6,74.3,60.1,62.0,57.7,54.0,83,59,31,29.95,29.84,9,2,0,0.00
2013-7-10,83.0,68.5,56.3,60.0,54.7,49.0,88,64,38,29.94,29.80,6,1,0,0.00
2013-7-11,75.1,62.4,51.4,53.0,48.3,43.0,88,63,32,29.96,29.83,9,2,0,0.00
2013-7-12,75.6,62.8,52.5,53.0,48.1,43.0,79,61,34,29.97,29.87,7,1,0,0.00
2013-7-13,79.0,66.9,53.5,51.0,44.1,37.0,69,47,23,30.03,29.89,14,4,0,0.00
2013-7-14,86.1,72.6,59.3,56.0,48.4,43.0,66,45,22,29.96,29.82,7,2,0,0.00
2013-7-15,84.1,71.8,57.8,54.0,48.0,42.0,68,44,31,29.86,29.67,12,2,0,0.00
2013-7-16,78.3,68.3,58.7,61.0,54.1,45.0,84,62,36,29.89,29.64,11,1,0,0.00
2013-7-17,79.2,64.7,58.0,57.0,54.4,53.0,86,71,43,30.04,29.90,4,0,0,0.00
2013-7-18,84.1,67.6,53.9,60.0,54.5,47.0,94,67,28,30.07,29.94,7,1,0,0.00
2013-7-19,85.5,68.1,52.9,62.0,56.2,51.0,95,68,40,30.01,29.88,5,1,0,0.00
2013-7-20,81.8,66.4,52.3,61.0,56.1,51.0,96,72,46,29.95,29.81,7,1,0,0.00
2013-7-21,85.3,70.6,56.2,61.0,54.4,49.0,83,59,35,29.85,29.75,8,1,0,0.00
2013-7-22,84.3,71.0,56.3,57.0,54.2,49.0,91,59,29,29.90,29.80,10,2,0,0.00
2013-7-23,90.7,74.9,61.6,60.0,57.0,51.0,86,58,26,29.90,29.80,10,2,0,0.00
2013-7-24,89.9,76.9,62.6,60.0,55.4,47.0,80,50,24,29.89,29.82,7,1,0,0.00
2013-7-25,89.0,77.8,64.5,57.0,52.3,46.0,74,44,23,29.94,29.86,11,3,0,0.00
2013-7-26,89.7,74.4,61.8,57.0,48.0,41.0,61,41,24,30.01,29.90,7,1,0,0.00
2013-7-27,82.0,66.5,53.5,55.0,48.3,43.0,77,54,30,30.05,29.88,8,1,0,0.00
2013-7-28,77.4,62.7,49.5,57.0,51.1,46.0,94,68,43,29.95,29.83,5,0,0,0.00
2013-7-29,77.0,63.1,54.4,56.0,52.1,49.0,84,69,45,29.91,29.82,6,1,0,0.00
2013-7-30,79.9,64.1,50.8,61.0,54.6,50.0,96,73,43,30.01,29.92,8,0,0,0.00
2013-7-31,72.0,61.4,54.8,60.0,55.6,53.0,95,82,63,30.00,29.92,9,1,0,0.00
2013-8-1,64.0,60.2,56.5,56.0,53.9,52.0,88,80,73,30.02,29.95,5,0,0,0.00
2013-8-2,73.3,62.7,55.0,56.0,53.5,52.0,92,73,51,30.03,29.96,7,1,0,0.00
2013-8-3,81.1,68.1,56.9,59.0,55.6,51.0,92,67,37,29.98,29.84,9,2,0,0.00
2013-8-4,88.2,72.5,60.2,63.0,58.8,55.0,90,65,34,29.89,29.77,9,1,0,0.00
2013-8-5,88.4,72.3,57.6,64.0,58.7,55.0,91,65,40,29.88,29.77,5,0,0,0.00
2013-8-6,90.7,75.5,61.5,58.0,50.0,41.0,78,46,18,29.86,29.77,6,1,0,0.00
2013-8-7,72.7,63.0,55.0,59.0,53.0,47.0,87,71,41,29.92,29.81,2,0,0,0.00
2013-8-8,83.0,64.3,51.1,63.0,55.3,50.0,98,76,40,29.94,29.78,8,0,0,0.00
2013-8-9,83.8,70.4,62.6,63.0,59.8,56.0,93,71,39,29.82,29.70,6,0,0,0.01
2013-8-10,73.0,63.2,55.6,60.0,57.2,54.0,95,81,62,29.93,29.79,5,0,0,0.04
2013-8-11,72.5,61.6,55.1,59.0,55.8,53.0,92,81,62,29.95,29.87,5,0,0,0.00
2013-8-12,75.6,62.8,56.5,59.0,55.3,51.0,92,78,51,29.96,29.90,4,0,0,0.00
2013-8-13,83.6,67.1,51.3,58.0,53.2,50.0,95,65,33,29.98,29.81,6,1,0,0.00
2013-8-14,84.1,68.0,56.2,61.0,55.2,48.0,86,66,28,29.85,29.81,3,0,0,0.00
2013-8-15,77.9,69.3,64.3,67.0,63.1,61.0,93,81,64,29.85,29.82,4,0,0,0.00
2013-8-16,82.2,69.9,63.2,67.0,61.6,50.0,95,77,52,29.93,29.84,4,0,0,0.00
2013-8-17,80.1,67.5,56.3,62.0,56.5,52.0,87,69,45,29.97,29.90,6,1,0,0.00
2013-8-18,83.8,68.3,56.9,62.0,58.5,56.0,98,74,43,30.01,29.90,4,0,0,0.00
2013-8-19,84.3,71.7,61.3,62.0,58.1,54.0,84,64,41,29.99,29.89,8,1,0,0.00
2013-8-20,82.4,69.8,58.3,54.0,48.4,37.0,69,50,20,30.00,29.84,12,5,0,0.00
2013-8-21,87.2,72.9,60.4,58.0,51.8,47.0,69,49,29,29.87,29.72,9,2,0,0.00
2013-8-22,80.7,70.1,59.5,63.0,57.2,53.0,95,65,47,29.79,29.72,3,0,0,0.04
2013-8-23,73.9,62.5,55.3,59.0,56.1,54.0,96,81,55,29.83,29.77,4,0,0,0.00
2013-8-24,73.9,64.7,58.7,59.0,55.5,52.0,90,74,52,29.80,29.73,4,0,0,0.00
2013-8-25,65.6,60.5,56.2,61.0,55.5,51.0,94,83,73,29.81,29.77,4,0,0,0.04
2013-8-26,77.4,63.4,53.3,57.0,54.3,50.0,97,75,41,29.85,29.79,6,0,0,0.00
2013-8-27,82.0,67.7,60.2,62.0,57.6,55.0,88,72,45,29.84,29.68,6,0,0,0.00
2013-8-28,79.8,68.1,59.8,63.0,60.6,59.0,99,79,51,29.79,29.72,3,0,0,0.04
2013-8-29,72.0,65.9,62.1,69.0,62.6,60.0,96,89,79,29.96,29.73,3,0,0,0.12
2013-8-30,79.6,69.8,60.4,62.0,59.4,57.0,97,72,48,30.02,29.91,5,0,0,0.00
2013-8-31,86.7,71.1,59.6,62.0,57.0,53.0,85,63,38,29.91,29.70,6,1,0,0.00
2013-9-1,82.8,67.1,54.1,58.0,54.7,52.0,94,68,38,29.79,29.69,5,0,0,0.00
2013-9-2,77.2,67.7,62.4,61.0,56.6,53.0,84,69,46,29.82,29.76,3,0,0,0.00
2013-9-3,78.6,67.7,60.5,57.0,54.8,51.0,81,65,43,29.89,29.81,9,0,0,0.00
2013-9-4,74.0,65.4,58.3,59.0,56.2,53.0,88,73,52,29.93,29.88,4,0,0,0.00
2013-9-5,68.8,60.9,57.5,60.0,57.5,56.0,99,89,71,29.95,29.87,4,0,0,1.59
2013-9-6,69.9,61.7,57.2,63.0,58.7,55.0,100,91,65,30.04,29.95,3,0,0,0.30
2013-9-7,76.0,64.0,52.9,61.0,57.3,52.0,100,81,56,29.98,29.84,7,1,0,0.00
2013-9-8,82.8,71.6,60.4,63.0,59.8,57.0,94,68,43,29.94,29.85,15,2,0,0.00
2013-9-9,83.0,73.0,63.7,64.0,61.3,58.0,88,68,48,29.89,29.77,10,2,0,0.00
2013-9-10,88.2,75.6,63.4,65.0,61.5,57.0,88,64,42,29.78,29.63,9,2,0,0.00
2013-9-11,85.7,72.9,59.9,67.0,59.9,55.0,88,65,48,29.83,29.67,3,0,0,0.00
2013-9-12,78.8,64.4,55.1,65.0,58.7,55.0,99,83,57,29.88,29.79,4,0,0,0.00
2013-9-13,79.0,64.4,56.6,65.0,59.5,55.0,98,85,62,29.85,29.71,6,0,0,0.00
2013-9-14,74.4,63.6,58.3,65.0,60.5,58.0,99,90,70,29.73,29.59,5,0,0,0.00
2013-9-15,66.1,60.8,57.6,62.0,58.2,56.0,98,91,84,29.80,29.62,4,0,0,0.01
2013-9-16,68.6,61.3,56.2,61.0,56.6,54.0,96,85,68,29.87,29.78,4,0,0,0.01
2013-9-17,66.8,60.6,55.6,57.0,53.6,50.0,92,78,57,29.91,29.74,11,1,0,0.02
2013-9-18,69.8,61.0,52.8,56.0,50.9,46.0,98,72,44,29.99,29.88,5,0,0,0.00
2013-9-19,75.6,61.4,48.9,56.0,50.6,47.0,93,70,43,29.87,29.67,2,0,0,0.00
2013-9-20,69.8,58.0,49.6,59.0,53.5,47.0,99,85,60,29.67,29.56,2,0,0,0.10
2013-9-21,62.1,56.6,52.8,59.0,55.5,52.0,100,96,81,29.69,29.57,1,0,0,0.09
2013-9-22,59.2,55.0,51.9,58.0,54.3,51.0,99,97,93,29.78,29.59,3,0,0,0.07
2013-9-23,62.3,55.6,53.1,58.0,54.9,53.0,100,97,85,29.89,29.79,2,0,0,0.35
2013-9-24,57.8,52.4,48.2,56.0,51.9,48.0,99,98,87,29.87,29.76,2,0,0,0.36
2013-9-25,57.0,50.6,46.2,54.0,48.7,46.0,99,93,79,29.93,29.76,3,0,0,0.21
2013-9-26,62.0,52.5,44.6,53.0,48.3,44.0,99,86,62,30.07,29.93,4,0,0,0.00
2013-9-27,53.6,50.6,45.1,54.0,50.0,45.0,100,98,89,30.07,29.84,1,0,0,0.29
2013-9-28,60.1,55.6,51.0,60.0,55.6,51.0,100,100,98,29.84,29.43,6,0,0,1.45
2013-9-29,54.1,52.2,50.7,54.0,52.3,51.0,100,100,99,29.60,29.34,5,0,0,1.40
2013-9-30,56.2,51.0,47.6,56.0,50.5,47.0,100,98,87,29.91,29.54,4,0,0,0.33
2013-10-1,56.7,49.7,44.3,55.0,47.6,43.0,100,93,69,30.09,29.89,3,0,0,0.42
2013-10-2,52.6,45.8,39.9,51.0,45.1,40.0,100,97,88,30.08,29.97,3,0,0,0.16
2013-10-3,55.6,46.2,38.2,51.0,43.1,38.0,100,90,66,30.30,30.08,5,0,0,0.00
2013-10-4,60.1,49.6,39.8,50.0,44.3,39.0,100,83,60,30.33,30.22,4,0,0,0.00
2013-10-5,65.3,53.5,42.6,52.0,47.1,42.0,99,80,55,30.22,30.02,5,0,0,0.00
2013-10-6,69.8,55.1,44.8,56.0,48.7,44.0,100,81,48,30.02,29.87,3,0,0,0.00
2013-10-7,59.6,53.1,47.7,52.0,49.4,46.0,98,88,68,30.05,29.89,6,0,0,0.04
2013-10-8,54.5,49.9,46.0,52.0,47.5,41.0,98,91,78,30.06,29.89,0,0,0,0.02
2013-10-9,57.8,49.4,41.8,45.0,42.3,40.0,94,78,55,29.97,29.86,7,2,0,0.00
2013-10-10,59.9,50.6,43.1,51.0,46.3,42.0,98,86,64,29.98,29.84,2,0,0,0.00
2013-10-11,55.9,51.3,47.3,48.0,44.8,42.0,93,79,64,30.02,29.98,1,0,0,0.00
2013-10-12,55.0,49.4,44.9,49.0,46.0,44.0,97,88,76,30.04,29.95,3,0,0,0.00
2013-10-13,57.3,50.0,43.8,48.0,45.4,43.0,97,84,67,30.17,30.04,5,1,0,0.00
2013-10-14,62.1,53.9,43.9,48.0,43.5,41.0,89,69,53,30.23,30.14,10,2,0,0.00
2013-10-15,63.9,55.5,45.2,44.0,40.6,38.0,82,59,43,30.16,30.00,6,2,0,0.00
2013-10-16,62.7,52.9,43.3,50.0,44.7,40.0,92,74,56,30.04,29.99,2,0,0,0.00
2013-10-17,60.5,51.0,42.3,51.0,46.6,42.0,99,86,63,30.10,30.02,4,0,0,0.00
2013-10-18,65.2,53.9,40.5,49.0,45.1,40.0,98,75,51,30.05,29.96,8,0,0,0.00
2013-10-19,63.9,53.5,41.1,52.0,46.4,40.0,97,78,62,30.04,29.98,2,0,0,0.00
2013-10-20,62.1,51.8,41.1,53.0,47.6,41.0,99,86,66,30.03,29.94,2,0,0,0.00
2013-10-21,65.0,53.0,41.9,54.0,48.5,41.0,99,86,61,29.96,29.86,2,0,0,0.00
2013-10-22,66.3,55.0,43.2,54.0,50.0,43.0,99,85,58,29.93,29.84,2,0,0,0.00
2013-10-23,63.4,54.2,46.0,56.0,51.8,46.0,100,92,73,29.89,29.83,1,0,0,0.01
2013-10-24,56.0,51.1,45.2,53.0,50.3,45.0,100,97,88,29.97,29.86,0,0,0,0.01
2013-10-25,50.2,48.2,44.8,50.0,48.2,45.0,100,99,98,30.16,29.98,4,0,0,0.00
2013-10-26,50.1,48.7,47.4,49.0,47.7,46.0,100,96,91,30.17,30.06,4,1,0,0.01
2013-10-27,54.4,50.4,47.7,52.0,46.1,42.0,99,86,66,30.06,29.72,17,2,0,0.12
2013-10-28,55.4,50.6,44.1,43.0,37.5,29.0,78,62,47,29.79,29.68,17,4,0,0.00
2013-10-29,53.5,44.7,33.4,38.0,31.9,29.0,92,63,42,29.96,29.79,3,0,0,0.00
2013-10-30,56.6,46.4,35.2,44.0,38.8,33.0,95,76,57,30.08,29.95,3,0,0,0.00
2013-10-31,56.0,51.8,48.6,52.0,48.2,43.0,99,87,73,30.15,30.06,1,0,0,0.01
2013-11-1,55.0,50.3,47.0,51.0,48.9,47.0,100,95,81,30.15,29.82,4,0,0,0.01
2013-11-2,52.9,47.5,42.3,50.0,46.0,42.0,99,94,77,29.99,29.69,12,1,0,0.51
2013-11-3,48.8,43.6,39.1,45.0,42.0,39.0,99,94,82,30.08,29.98,2,0,0,0.03
2013-11-4,48.3,45.2,41.9,47.0,44.6,41.0,99,98,94,30.07,30.01,2,0,0,0.16
2013-11-5,52.3,49.5,46.5,52.0,49.6,46.0,100,100,99,30.14,29.98,2,0,0,0.36
2013-11-6,56.9,53.2,50.8,57.0,53.2,51.0,100,100,98,30.16,29.98,2,0,0,0.05
2013-11-7,53.6,49.2,43.3,54.0,48.8,43.0,100,98,90,30.04,29.81,9,0,0,0.44
2013-11-8,50.7,46.4,43.8,49.0,45.5,44.0,100,97,89,30.10,29.99,3,0,0,0.04
2013-11-9,46.5,44.4,42.3,44.0,43.3,42.0,99,96,89,30.00,29.92,3,0,0,0.00
2013-11-10,52.2,46.3,41.9,48.0,45.1,41.0,99,96,86,29.97,29.93,2,0,0,0.00
2013-11-11,48.5,43.8,39.8,49.0,43.8,40.0,100,100,98,30.02,29.91,1,0,0,0.00
2013-11-12,54.5,49.6,44.6,55.0,49.7,45.0,100,100,100,30.31,29.99,0,0,0,0.21
2013-11-13,49.9,47.8,44.6,50.0,47.8,44.0,100,100,97,30.36,30.18,6,0,0,0.01
2013-11-14,51.0,46.0,43.6,48.0,45.1,43.0,100,97,88,30.18,29.99,2,0,0,0.08
2013-11-15,46.0,43.4,39.2,46.0,43.1,39.0,100,99,98,29.99,29.54,3,0,0,0.11
2013-11-16,48.8,45.3,42.8,47.0,43.6,42.0,100,93,79,29.77,29.49,3,0,0,0.08
2013-11-17,52.2,46.4,41.1,49.0,45.2,41.0,100,95,86,29.91,29.77,3,0,0,0.00
2013-11-18,49.1,46.5,42.9,49.0,45.5,42.0,100,96,88,29.89,29.65,2,0,0,0.21
2013-11-19,53.2,48.0,39.9,53.0,47.0,32.0,100,96,72,29.89,29.62,7,1,0,0.14
2013-11-20,43.2,37.7,33.8,33.0,28.9,22.0,83,71,59,30.23,29.89,16,5,0,0.00
2013-11-21,43.1,37.2,32.4,23.0,16.2,11.0,63,43,32,30.43,30.23,11,3,0,0.00
2013-11-22,45.1,37.6,28.2,23.0,18.5,13.0,72,47,35,30.43,30.25,8,1,0,0.00
2013-11-23,48.5,40.9,34.0,27.0,22.0,16.0,67,48,40,30.25,30.04,4,0,0,0.00
2013-11-24,45.7,38.7,31.6,31.0,27.0,21.0,78,63,52,30.16,30.04,2,0,0,0.00
2013-11-25,45.1,37.6,30.0,36.0,32.7,28.0,95,83,70,30.23,30.16,0,0,0,0.00
2013-11-26,43.8,37.7,28.7,39.0,35.3,28.0,99,91,83,30.17,29.96,1,0,0,0.00
2013-11-27,45.7,39.9,32.4,39.0,35.8,32.0,99,86,70,29.96,29.84,1,0,0,0.00
2013-11-28,47.1,40.1,33.8,37.0,34.4,32.0,95,81,64,30.09,29.90,1,0,0,0.00
2013-11-29,42.8,38.1,29.8,40.0,36.3,29.0,99,93,86,30.26,30.09,2,0,0,0.01
2013-11-30,49.8,43.7,37.8,46.0,42.3,37.0,99,95,85,30.29,30.15,0,0,0,0.00
2013-12-1,53.2,50.5,45.8,53.0,50.2,45.0,100,99,95,30.14,29.87,3,0,0,0.68
2013-12-2,51.0,41.0,33.5,51.0,39.7,33.0,100,95,86,29.95,29.82,9,1,0,0.82
2013-12-3,38.9,33.6,29.5,36.0,29.4,18.0,100,86,58,30.14,29.94,6,2,0,0.02
2013-12-4,34.0,29.8,27.0,20.0,17.4,14.0,72,61,44,30.21,30.14,10,2,0,0.00
2013-12-5,29.0,25.3,21.8,19.0,16.0,12.0,80,68,58,30.18,30.04,4,0,0,0.00
2013-12-6,25.1,23.8,22.5,22.0,19.7,14.0,94,85,70,30.03,29.81,11,3,0,0.00
2013-12-7,24.7,21.3,17.3,14.0,8.4,5.0,71,58,48,30.31,29.93,11,3,0,0.00
2013-12-8,22.5,16.6,8.6,15.0,10.0,4.0,89,75,61,30.49,30.31,2,0,0,0.00
2013-12-9,26.7,19.7,11.1,21.0,15.7,9.0,91,84,69,30.52,30.43,2,0,0,0.02
2013-12-10,31.0,25.6,20.6,25.0,22.3,18.0,92,87,79,30.44,30.30,3,0,0,0.03
2013-12-11,28.2,23.7,16.9,25.0,22.0,15.0,95,93,87,30.30,30.11,0,0,0,0.00
2013-12-12,36.3,28.7,18.6,36.0,28.0,17.0,99,97,92,30.13,30.02,2,0,0,0.22
2013-12-13,46.2,41.3,36.3,46.0,41.2,36.0,100,100,97,30.32,30.12,1,0,0,0.04
2013-12-14,40.6,37.9,36.2,41.0,37.9,36.0,100,100,99,30.35,30.26,2,0,0,0.01
2013-12-15,45.2,41.3,36.8,45.0,41.3,37.0,100,100,99,30.36,30.31,0,0,0,0.03
2013-12-16,43.9,41.4,38.0,44.0,41.0,38.0,100,98,91,30.35,30.14,7,1,0,0.00
2013-12-17,38.2,37.0,36.0,38.0,37.1,36.0,100,100,100,30.13,30.06,1,0,0,0.01
2013-12-18,41.1,37.2,33.7,41.0,37.4,34.0,100,100,100,30.08,29.94,4,0,0,0.05
2013-12-19,37.3,33.3,30.6,34.0,31.3,30.0,100,92,81,30.20,30.01,6,1,0,0.00
2013-12-20,41.3,35.5,30.9,41.0,35.2,30.0,100,98,97,30.13,29.83,3,0,0,0.16
2013-12-21,48.6,45.1,41.2,49.0,44.3,41.0,100,97,87,30.14,29.87,3,0,0,0.01
2013-12-22,52.3,46.7,43.1,50.0,45.4,43.0,100,96,84,30.25,30.14,1,0,0,0.01
2013-12-23,50.4,45.2,39.1,50.0,44.9,38.0,100,98,87,30.43,30.22,1,0,0,0.10
2013-12-24,42.3,36.7,30.9,41.0,35.7,31.0,100,96,83,30.47,30.37,6,0,0,0.00
2013-12-25,34.9,33.3,31.6,35.0,33.3,31.0,100,100,98,30.37,30.28,3,0,0,0.00
2013-12-26,33.2,31.8,30.4,33.0,31.8,30.0,100,100,100,30.29,30.13,1,0,0,0.00
2013-12-27,34.9,32.3,29.8,35.0,32.2,30.0,100,100,99,30.29,30.10,2,0,0,0.01
2013-12-28,40.6,36.3,31.0,40.0,35.1,31.0,100,95,85,30.39,30.29,7,1,0,0.00
2013-12-29,40.1,37.5,34.1,38.0,36.1,34.0,98,94,88,30.34,30.17,4,0,0,0.00
2013-12-30,39.8,36.3,33.5,38.0,35.7,33.0,100,97,92,30.17,30.09,1,0,0,0.00
2013-12-31,45.2,40.7,36.0,43.0,39.6,36.0,99,95,88,30.22,30.12,2,0,0,0.01
2014-1-1,40.3,38.2,35.0,40.0,38.2,35.0,100,100,98,30.24,30.15,2,0,0,0.01
2014-1-2,43.5,39.1,35.0,44.0,39.2,35.0,100,100,100,30.15,29.96,2,0,0,0.00